createdAt,value
2018-06-29T00:01:33.408Z,52.67
2018-06-29T00:04:05.302Z,50.60
2018-06-29T00:06:40.282Z,60.00
2018-06-29T00:09:16.433Z,51.30
2018-06-29T00:11:52.237Z,58.30
2018-06-29T00:14:25.379Z,50.30
2018-06-29T00:17:02.434Z,57.93
2018-06-29T00:19:35.788Z,60.73
2018-06-29T00:22:07.720Z,48.43
2018-06-29T00:24:39.512Z,49.93
2018-06-29T00:27:11.338Z,59.23
2018-06-29T00:29:43.308Z,60.97
2018-06-29T00:32:15.169Z,68.20
2018-06-29T00:34:46.775Z,70.37
2018-06-29T00:37:18.820Z,65.57
2018-06-29T00:39:50.487Z,61.40
2018-06-29T00:42:22.107Z,48.73
2018-06-29T00:44:53.774Z,55.37
2018-06-29T00:47:25.574Z,64.43
2018-06-29T00:49:56.111Z,71.50
2018-06-29T00:52:28.079Z,68.50
2018-06-29T00:54:58.956Z,78.13
2018-06-29T00:57:31.034Z,74.23
2018-06-29T01:00:05.041Z,69.53
2018-06-29T01:02:36.826Z,79.50
2018-06-29T01:05:08.381Z,87.23
2018-06-29T01:07:40.142Z,107.13
2018-06-29T01:10:12.569Z,81.27
2018-06-29T01:12:44.345Z,81.20
2018-06-29T01:15:16.192Z,77.80
2018-06-29T01:17:48.127Z,70.10
2018-06-29T01:20:19.770Z,89.83
2018-06-29T01:22:51.456Z,92.37
2018-06-29T01:25:23.075Z,93.20
2018-06-29T01:27:55.299Z,93.53
2018-06-29T01:30:27.099Z,106.23
2018-06-29T01:32:59.225Z,93.27
2018-06-29T01:35:30.898Z,108.90
2018-06-29T01:38:02.587Z,93.30
2018-06-29T01:40:34.052Z,90.43
2018-06-29T01:43:05.818Z,92.53
2018-06-29T01:45:37.635Z,93.17
2018-06-29T01:48:09.751Z,80.97
2018-06-29T01:50:41.115Z,112.93
2018-06-29T01:53:11.979Z,83.17
2018-06-29T01:55:43.723Z,89.23
2018-06-29T01:58:15.600Z,89.10
2018-06-29T02:00:47.436Z,102.97
2018-06-29T02:03:20.877Z,94.90
2018-06-29T02:05:52.386Z,100.03
2018-06-29T02:08:24.311Z,103.10
2018-06-29T02:10:56.631Z,105.70
2018-06-29T02:13:28.714Z,107.50
2018-06-29T02:16:00.476Z,90.37
2018-06-29T02:18:32.630Z,98.57
2018-06-29T02:21:04.410Z,108.23
2018-06-29T02:23:36.323Z,93.40
2018-06-29T02:26:07.781Z,91.80
2018-06-29T02:28:39.521Z,136.87
2018-06-29T02:31:11.325Z,96.63
2018-06-29T02:33:43.572Z,95.00
2018-06-29T02:36:15.368Z,79.67
2018-06-29T02:38:47.799Z,106.63
2018-06-29T02:41:20.344Z,108.13
2018-06-29T02:43:52.561Z,106.10
2018-06-29T02:46:23.235Z,90.77
2018-06-29T02:48:55.257Z,87.37
2018-06-29T02:51:26.887Z,83.53
2018-06-29T02:53:58.927Z,90.27
2018-06-29T02:56:30.749Z,91.83
2018-06-29T02:59:02.727Z,104.40
2018-06-29T03:01:34.179Z,89.73
2018-06-29T03:04:06.194Z,96.13
2018-06-29T03:06:37.894Z,95.10
2018-06-29T03:09:10.850Z,85.50
2018-06-29T03:11:41.602Z,100.60
2018-06-29T03:14:13.115Z,84.83
2018-06-29T03:16:45.234Z,103.17
2018-06-29T03:19:16.303Z,114.63
2018-06-29T03:21:48.015Z,101.30
2018-06-29T03:24:20.103Z,94.90
2018-06-29T03:26:51.010Z,88.87
2018-06-29T03:29:22.886Z,97.60
2018-06-29T03:31:54.258Z,89.03
2018-06-29T03:34:25.973Z,81.27
2018-06-29T03:36:56.583Z,85.60
2018-06-29T03:39:28.407Z,91.50
2018-06-29T03:42:01.510Z,85.20
2018-06-29T03:44:33.199Z,104.30
2018-06-29T03:47:04.853Z,77.97
2018-06-29T03:49:36.631Z,118.20
2018-06-29T03:52:08.274Z,111.53
2018-06-29T03:54:40.229Z,99.87
2018-06-29T03:57:11.956Z,85.87
2018-06-29T03:59:43.980Z,90.97
2018-06-29T04:02:15.553Z,106.80
2018-06-29T04:04:47.342Z,98.93
2018-06-29T04:07:19.037Z,104.77
2018-06-29T04:09:50.698Z,132.27
2018-06-29T04:12:22.359Z,91.87
2018-06-29T04:14:54.458Z,85.00
2018-06-29T04:17:25.818Z,100.57
2018-06-29T04:19:57.807Z,89.77
2018-06-29T04:22:29.325Z,100.27
2018-06-29T04:25:03.352Z,85.43
2018-06-29T04:27:35.262Z,77.03
2018-06-29T04:30:07.984Z,88.53
2018-06-29T04:32:39.726Z,94.37
2018-06-29T04:35:11.899Z,100.87
2018-06-29T04:37:43.427Z,80.90
2018-06-29T04:40:16.030Z,85.83
2018-06-29T04:42:48.724Z,79.53
2018-06-29T04:45:21.039Z,88.73
2018-06-29T04:47:52.485Z,82.30
2018-06-29T04:50:24.726Z,88.07
2018-06-29T04:52:55.455Z,98.63
2018-06-29T04:55:27.208Z,97.33
2018-06-29T04:57:59.017Z,95.03
2018-06-29T05:00:31.139Z,93.00
2018-06-29T05:03:02.870Z,74.60
2018-06-29T05:05:34.627Z,93.60
2018-06-29T05:08:06.203Z,90.57
2018-06-29T05:10:38.531Z,96.77
2018-06-29T05:13:10.439Z,82.43
2018-06-29T05:15:42.619Z,90.67
2018-06-29T05:18:14.204Z,88.97
2018-06-29T05:20:46.396Z,80.12
2018-06-29T05:23:18.360Z,86.30
2018-06-29T05:25:50.010Z,109.90
2018-06-29T05:28:22.073Z,106.32
2018-06-29T05:30:53.379Z,98.27
2018-06-29T05:33:25.063Z,110.95
2018-06-29T05:35:56.720Z,119.57
2018-06-29T05:38:28.249Z,88.40
2018-06-29T05:41:00.101Z,110.00
2018-06-29T05:43:33.347Z,109.80
2018-06-29T05:46:04.771Z,95.10
2018-06-29T05:48:36.532Z,93.70
2018-06-29T05:51:07.395Z,118.77
2018-06-29T05:53:39.267Z,103.20
2018-06-29T05:56:11.331Z,112.08
2018-06-29T05:58:43.104Z,110.65
2018-06-29T06:01:15.409Z,97.37
2018-06-29T06:03:46.958Z,104.67
2018-06-29T06:06:18.653Z,87.40
2018-06-29T06:08:50.294Z,107.65
2018-06-29T06:11:22.071Z,95.97
2018-06-29T06:13:53.783Z,81.40
2018-06-29T06:16:24.439Z,73.07
2018-06-29T06:19:08.995Z,90.45
2018-06-29T06:21:40.703Z,92.08
2018-06-29T06:24:12.358Z,85.30
2018-06-29T06:26:44.323Z,102.07
2018-06-29T06:29:15.924Z,81.10
2018-06-29T06:31:47.954Z,106.37
2018-06-29T06:34:19.578Z,91.37
2018-06-29T06:36:51.443Z,94.17
2018-06-29T06:39:23.194Z,87.35
2018-06-29T06:41:55.278Z,88.22
2018-06-29T06:44:28.137Z,78.80
2018-06-29T06:47:00.184Z,78.15
2018-06-29T06:49:31.829Z,84.28
2018-06-29T06:52:02.805Z,88.85
2018-06-29T06:54:34.846Z,80.25
2018-06-29T06:57:06.647Z,75.25
2018-06-29T06:59:38.328Z,76.67
2018-06-29T07:02:10.187Z,73.70
2018-06-29T07:04:42.162Z,86.75
2018-06-29T07:07:14.026Z,70.08
2018-06-29T07:09:45.506Z,78.60
2018-06-29T07:12:17.869Z,81.42
2018-06-29T07:14:49.410Z,79.82
2018-06-29T07:17:21.355Z,68.85
2018-06-29T07:19:52.757Z,66.47
2018-06-29T07:22:23.770Z,76.75
2018-06-29T07:24:55.366Z,80.07
2018-06-29T07:27:27.357Z,89.65
2018-06-29T07:29:58.874Z,75.55
2018-06-29T07:32:31.351Z,65.20
2018-06-29T07:35:02.070Z,69.62
2018-06-29T07:37:33.085Z,90.38
2018-06-29T07:40:04.938Z,80.00
2018-06-29T07:42:37.375Z,93.20
2018-06-29T07:45:09.867Z,94.05
2018-06-29T07:47:42.030Z,77.80
2018-06-29T07:50:13.754Z,83.72
2018-06-29T07:52:44.821Z,94.80
2018-06-29T07:55:16.470Z,110.48
2018-06-29T07:57:48.341Z,84.37
2018-06-29T08:00:20.295Z,89.55
2018-06-29T08:02:51.960Z,80.87
2018-06-29T08:05:22.665Z,82.50
2018-06-29T08:07:54.608Z,73.15
2018-06-29T08:10:26.191Z,87.90
2018-06-29T08:12:58.363Z,87.25
2018-06-29T08:15:30.111Z,80.35
2018-06-29T08:18:01.995Z,85.60
2018-06-29T08:20:34.100Z,70.57
2018-06-29T08:23:05.467Z,74.32
2018-06-29T08:25:37.223Z,98.82
2018-06-29T08:28:09.041Z,74.72
2018-06-29T08:30:39.882Z,74.15
2018-06-29T08:33:11.755Z,95.05
2018-06-29T08:35:43.223Z,86.22
2018-06-29T08:38:15.027Z,75.83
2018-06-29T08:40:46.643Z,84.85
2018-06-29T08:43:18.722Z,82.40
2018-06-29T08:45:51.427Z,86.72
2018-06-29T08:48:23.454Z,70.87
2018-06-29T08:50:55.122Z,88.45
2018-06-29T08:53:27.019Z,87.80
2018-06-29T08:55:58.961Z,89.45
2018-06-29T08:58:30.652Z,85.85
2018-06-29T09:01:02.660Z,79.58
2018-06-29T09:03:34.427Z,96.42
2018-06-29T09:06:06.040Z,82.72
2018-06-29T09:08:37.763Z,82.95
2018-06-29T09:11:09.995Z,91.57
2018-06-29T09:13:42.626Z,95.90
2018-06-29T09:16:14.624Z,79.20
2018-06-29T09:18:47.817Z,90.35
2018-06-29T09:21:19.965Z,77.47
2018-06-29T09:23:51.796Z,86.95
2018-06-29T09:26:23.373Z,97.02
2018-06-29T09:28:54.349Z,81.97
2018-06-29T09:31:26.047Z,65.35
2018-06-29T09:33:58.290Z,72.27
2018-06-29T09:36:30.080Z,88.92
2018-06-29T09:39:01.802Z,87.33
2018-06-29T09:41:33.388Z,80.97
2018-06-29T09:44:05.867Z,91.72
2018-06-29T09:46:37.863Z,87.22
2018-06-29T09:49:09.785Z,77.77
2018-06-29T09:51:41.464Z,80.90
2018-06-29T09:54:13.379Z,81.90
2018-06-29T09:56:45.190Z,83.45
2018-06-29T09:59:16.990Z,74.25
2018-06-29T10:01:48.629Z,94.30
2018-06-29T10:04:20.635Z,87.15
2018-06-29T10:06:52.270Z,68.50
2018-06-29T10:09:23.869Z,85.07
2018-06-29T10:11:55.431Z,83.17
2018-06-29T10:14:27.422Z,76.15
2018-06-29T10:16:59.192Z,80.75
2018-06-29T10:19:30.493Z,62.65
2018-06-29T10:22:02.104Z,67.22
2018-06-29T10:24:34.060Z,88.25
2018-06-29T10:27:05.696Z,77.42
2018-06-29T10:29:37.400Z,95.55
2018-06-29T10:32:08.888Z,147.10
2018-06-29T10:34:40.648Z,152.93
2018-06-29T10:37:12.211Z,126.77
2018-06-29T10:39:44.188Z,119.65
2018-06-29T10:42:14.723Z,135.88
2018-06-29T10:44:45.597Z,116.33
2018-06-29T10:47:17.767Z,135.10
2018-06-29T10:49:49.867Z,133.70
2018-06-29T10:52:21.811Z,132.07
2018-06-29T10:54:53.020Z,107.45
2018-06-29T10:57:24.708Z,133.55
2018-06-29T10:59:56.373Z,120.30
2018-06-29T11:02:28.272Z,127.90
2018-06-29T11:04:59.855Z,117.05
2018-06-29T11:07:31.402Z,134.53
2018-06-29T11:10:03.248Z,120.77
2018-06-29T11:12:34.822Z,124.00
2018-06-29T11:15:05.775Z,107.60
2018-06-29T11:17:37.312Z,130.77
2018-06-29T11:20:09.036Z,158.00
2018-06-29T11:22:40.493Z,119.28
2018-06-29T11:25:12.213Z,112.93
2018-06-29T11:27:43.768Z,128.00
2018-06-29T11:30:15.362Z,128.57
2018-06-29T11:32:46.989Z,129.67
2018-06-29T11:35:18.961Z,119.03
2018-06-29T11:37:50.357Z,126.10
2018-06-29T11:40:21.054Z,104.30
2018-06-29T11:42:52.511Z,138.20
2018-06-29T11:45:24.259Z,128.00
2018-06-29T11:47:56.773Z,114.70
2018-06-29T11:50:28.508Z,135.63
2018-06-29T11:53:00.216Z,129.80
2018-06-29T11:55:31.931Z,121.53
2018-06-29T11:58:04.075Z,124.33
2018-06-29T12:00:35.335Z,124.77
2018-06-29T12:03:07.064Z,134.90
2018-06-29T12:05:38.683Z,121.73
2018-06-29T12:08:10.028Z,138.97
2018-06-29T12:10:41.945Z,138.00
2018-06-29T12:13:13.515Z,149.37
2018-06-29T12:15:45.112Z,118.67
2018-06-29T12:18:15.696Z,126.93
2018-06-29T12:20:47.555Z,142.40
2018-06-29T12:23:18.290Z,110.30
2018-06-29T12:25:49.876Z,113.93
2018-06-29T12:28:21.473Z,131.47
2018-06-29T12:30:53.221Z,123.00
2018-06-29T12:33:24.588Z,98.37
2018-06-29T12:35:56.404Z,111.90
2018-06-29T12:38:28.012Z,124.03
2018-06-29T12:40:59.795Z,115.87
2018-06-29T12:43:31.353Z,115.50
2018-06-29T12:46:03.372Z,123.20
2018-06-29T12:48:35.211Z,124.23
2018-06-29T12:51:06.509Z,127.40
2018-06-29T12:53:38.012Z,115.47
2018-06-29T12:56:09.889Z,114.90
2018-06-29T12:58:40.378Z,121.60
2018-06-29T13:01:11.978Z,120.73
2018-06-29T13:03:43.384Z,102.43
2018-06-29T13:06:15.143Z,109.77
2018-06-29T13:08:46.437Z,106.53
2018-06-29T13:11:18.017Z,105.67
2018-06-29T13:13:49.592Z,108.90
2018-06-29T13:16:21.169Z,114.13
2018-06-29T13:18:52.641Z,97.27
2018-06-29T13:21:23.460Z,104.33
2018-06-29T13:23:55.011Z,107.57
2018-06-29T13:26:27.045Z,124.70
2018-06-29T13:28:57.893Z,107.57
2018-06-29T13:31:29.485Z,106.03
2018-06-29T13:34:00.926Z,108.63
2018-06-29T13:36:32.820Z,110.27
2018-06-29T13:39:05.233Z,121.67
2018-06-29T13:41:37.035Z,106.43
2018-06-29T13:44:08.822Z,113.77
2018-06-29T13:46:40.429Z,129.37
2018-06-29T13:49:12.946Z,117.63
2018-06-29T13:51:43.828Z,110.90
2018-06-29T13:54:15.351Z,96.87
2018-06-29T13:56:46.972Z,111.03
2018-06-29T13:59:19.345Z,107.07
2018-06-29T14:01:51.456Z,107.73
2018-06-29T14:04:22.953Z,98.03
2018-06-29T14:06:54.956Z,107.63
2018-06-29T14:09:26.387Z,95.27
2018-06-29T14:12:07.344Z,113.23
2018-06-29T14:14:40.508Z,89.07
2018-06-29T14:17:12.576Z,93.23
2018-06-29T14:19:43.626Z,74.50
2018-06-29T14:22:15.477Z,92.43
2018-06-29T14:24:46.838Z,76.87
2018-06-29T14:27:18.686Z,69.83
2018-06-29T14:29:50.315Z,76.50
2018-06-29T14:32:21.788Z,85.20
2018-06-29T14:35:01.655Z,72.77
2018-06-29T14:37:33.136Z,79.80
2018-06-29T14:40:04.785Z,83.40
2018-06-29T14:42:37.221Z,85.50
2018-06-29T14:45:08.644Z,69.27
2018-06-29T14:47:40.357Z,79.60
2018-06-29T14:50:13.537Z,65.17
2018-06-29T14:52:45.248Z,83.90
2018-06-29T14:55:16.700Z,81.27
2018-06-29T14:57:49.572Z,80.30
2018-06-29T15:00:25.603Z,93.27
2018-06-29T15:05:52.971Z,77.53
2018-06-29T15:08:24.732Z,70.03
2018-06-29T15:10:56.528Z,62.03
2018-06-29T15:13:28.436Z,72.10
2018-06-29T15:15:59.922Z,70.13
2018-06-29T15:18:32.048Z,59.57
2018-06-29T15:21:03.624Z,67.43
2018-06-29T15:23:35.739Z,63.00
2018-06-29T15:26:07.672Z,78.63
2018-06-29T15:28:39.466Z,62.73
2018-06-29T15:31:10.873Z,66.57
2018-06-29T15:33:42.575Z,70.67
2018-06-29T15:36:13.924Z,52.60
2018-06-29T15:38:45.908Z,83.60
2018-06-29T15:41:16.430Z,63.37
2018-06-29T15:43:48.659Z,61.60
2018-06-29T15:46:19.181Z,62.77
2018-06-29T15:48:51.107Z,73.10
2018-06-29T15:51:23.833Z,65.33
2018-06-29T15:53:55.523Z,72.60
2018-06-29T15:56:26.712Z,57.70
2018-06-29T15:58:57.804Z,66.23
2018-06-29T16:01:29.184Z,64.97
2018-06-29T16:03:59.923Z,63.77
2018-06-29T16:06:31.650Z,71.97
2018-06-29T16:09:02.443Z,74.53
2018-06-29T16:11:34.066Z,48.40
2018-06-29T16:14:04.917Z,59.73
2018-06-29T16:16:35.500Z,91.90
2018-06-29T16:19:07.109Z,60.23
2018-06-29T16:21:38.586Z,60.13
2018-06-29T16:24:10.630Z,72.63
2018-06-29T16:26:42.061Z,54.67
2018-06-29T16:29:13.871Z,61.57
2018-06-29T16:31:45.313Z,66.13
2018-06-29T16:34:16.992Z,61.53
2018-06-29T16:36:48.369Z,57.00
2018-06-29T16:39:20.057Z,48.33
2018-06-29T16:41:51.467Z,63.33
2018-06-29T16:44:24.244Z,48.70
2018-06-29T16:46:55.510Z,65.97
2018-06-29T16:49:27.455Z,61.13
2018-06-29T16:52:00.036Z,58.33
2018-06-29T16:54:31.532Z,61.77
2018-06-29T16:57:03.051Z,87.03
2018-06-29T16:59:35.933Z,79.13
2018-06-29T17:02:07.425Z,51.00
2018-06-29T17:04:38.913Z,57.27
2018-06-29T17:07:10.321Z,46.53
2018-06-29T17:09:41.852Z,51.57
2018-06-29T17:12:13.704Z,59.43
2018-06-29T17:14:44.546Z,69.47
2018-06-29T17:17:16.215Z,60.53
2018-06-29T17:19:47.122Z,55.23
2018-06-29T17:22:18.747Z,57.17
2018-06-29T17:24:50.860Z,58.47
2018-06-29T17:27:22.786Z,62.90
2018-06-29T17:29:54.857Z,60.90
2018-06-29T17:32:26.293Z,63.03
2018-06-29T17:34:57.962Z,50.07
2018-06-29T17:37:29.931Z,57.20
2018-06-29T17:40:01.592Z,56.53
2018-06-29T17:42:33.197Z,59.57
2018-06-29T17:45:04.055Z,74.67
2018-06-29T17:47:35.546Z,53.17
2018-06-29T17:50:07.224Z,61.80
2018-06-29T17:52:39.137Z,62.07
2018-06-29T17:55:11.337Z,51.47
2018-06-29T17:57:42.753Z,55.00
2018-06-29T18:00:14.481Z,63.93
2018-06-29T18:02:46.032Z,62.07
2018-06-29T18:05:16.943Z,57.30
2018-06-29T18:07:49.853Z,60.03
2018-06-29T18:10:21.712Z,75.90
2018-06-29T18:12:53.037Z,68.23
2018-06-29T18:15:24.989Z,54.37
2018-06-29T18:17:56.552Z,74.03
2018-06-29T18:20:28.419Z,65.47
2018-06-29T18:23:00.096Z,56.93
2018-06-29T18:25:31.978Z,70.47
2018-06-29T18:28:02.431Z,58.87
2018-06-29T18:30:34.052Z,69.40
2018-06-29T18:33:09.166Z,55.43
2018-06-29T18:35:41.053Z,64.87
2018-06-29T18:38:12.540Z,70.87
2018-06-29T18:40:44.803Z,64.57
2018-06-29T18:43:25.282Z,83.93
2018-06-29T18:45:58.281Z,81.70
2018-06-29T18:48:29.709Z,71.93
2018-06-29T18:51:01.686Z,80.77
2018-06-29T18:53:34.730Z,83.93
2018-06-29T18:56:14.180Z,79.83
2018-06-29T19:01:42.693Z,83.53
2018-06-29T19:04:14.367Z,75.37
2018-06-29T19:06:45.692Z,91.03
2018-06-29T19:09:16.228Z,85.80
2018-06-29T19:11:49.283Z,85.50
2018-06-29T19:14:21.392Z,75.33
2018-06-29T19:16:53.919Z,80.37
2018-06-29T19:19:26.839Z,84.80
2018-06-29T19:21:58.517Z,73.53
2018-06-29T19:24:31.195Z,96.03
2018-06-29T19:27:03.692Z,92.40
2018-06-29T19:29:35.183Z,77.83
2018-06-29T19:32:08.616Z,88.20
2018-06-29T19:34:40.249Z,87.77
2018-06-29T19:37:12.021Z,82.87
2018-06-29T19:39:43.806Z,78.20
2018-06-29T19:42:15.528Z,83.70
2018-06-29T19:44:47.358Z,92.50
2018-06-29T19:47:19.308Z,101.90
2018-06-29T19:49:50.963Z,85.10
2018-06-29T19:52:23.830Z,78.97
2018-06-29T19:54:57.968Z,77.57
2018-06-29T19:57:29.545Z,84.80
2018-06-29T20:00:01.066Z,92.30
2018-06-29T20:02:32.988Z,100.30
2018-06-29T20:05:04.947Z,92.80
2018-06-29T20:07:37.071Z,101.63
2018-06-29T20:10:08.979Z,80.43
2018-06-29T20:12:41.096Z,95.83
2018-06-29T20:15:12.523Z,90.53
2018-06-29T20:17:44.516Z,89.20
2018-06-29T20:20:16.384Z,92.43
2018-06-29T20:22:48.120Z,80.63
2018-06-29T20:25:19.914Z,79.83
2018-06-29T20:27:51.830Z,95.53
2018-06-29T20:30:22.475Z,80.50
2018-06-29T20:32:53.451Z,85.67
2018-06-29T20:35:25.667Z,96.80
2018-06-29T20:37:57.375Z,95.03
2018-06-29T20:40:29.195Z,77.83
2018-06-29T20:43:01.198Z,86.20
2018-06-29T20:45:33.242Z,72.03
2018-06-29T20:48:05.276Z,75.50
2018-06-29T20:50:35.823Z,83.77
2018-06-29T20:53:06.795Z,83.87
2018-06-29T20:55:39.756Z,88.37
2018-06-29T20:58:10.734Z,84.23
2018-06-29T21:00:42.320Z,82.47
2018-06-29T21:03:14.213Z,94.83
2018-06-29T21:05:45.087Z,64.73
2018-06-29T21:08:17.210Z,74.63
2018-06-29T21:10:49.537Z,71.60
2018-06-29T21:13:20.279Z,70.53
2018-06-29T21:15:51.937Z,75.73
2018-06-29T21:18:24.167Z,56.90
2018-06-29T21:20:55.380Z,74.27
2018-06-29T21:23:27.076Z,67.10
2018-06-29T21:25:58.632Z,73.83
2018-06-29T21:28:31.050Z,72.93
2018-06-29T21:31:03.301Z,81.47
2018-06-29T21:33:35.091Z,80.77
2018-06-29T21:36:06.584Z,60.50
2018-06-29T21:38:38.168Z,69.20
2018-06-29T21:41:09.931Z,66.20
2018-06-29T21:43:41.724Z,70.17
2018-06-29T21:46:14.280Z,94.67
2018-06-29T21:48:46.195Z,80.83
2018-06-29T21:51:17.807Z,84.63
2018-06-29T21:53:49.662Z,69.20
2018-06-29T21:56:21.362Z,84.20
2018-06-29T21:58:52.455Z,61.17
2018-06-29T22:01:23.781Z,87.50
2018-06-29T22:03:55.707Z,75.57
2018-06-29T22:06:27.333Z,86.60
2018-06-29T22:08:59.564Z,66.37
2018-06-29T22:11:31.308Z,64.90
2018-06-29T22:14:03.164Z,72.47
2018-06-29T22:16:33.842Z,68.83
2018-06-29T22:19:04.714Z,76.43
2018-06-29T22:21:36.385Z,85.80
2018-06-29T22:24:08.109Z,80.03
2018-06-29T22:26:39.859Z,80.23
2018-06-29T22:29:11.524Z,67.07
2018-06-29T22:31:43.427Z,72.17
2018-06-29T22:34:15.870Z,78.47
2018-06-29T22:36:47.272Z,65.37
2018-06-29T22:39:19.435Z,82.97
2018-06-29T22:41:50.071Z,73.27
2018-06-29T22:44:21.890Z,63.63
2018-06-29T22:46:52.563Z,72.70
2018-06-29T22:49:23.402Z,66.63
2018-06-29T22:51:54.013Z,79.30
2018-06-29T22:54:25.923Z,69.33
2018-06-29T22:56:58.444Z,68.87
2018-06-29T22:59:30.152Z,63.77
2018-06-29T23:02:01.622Z,64.63
2018-06-29T23:04:33.584Z,66.87
2018-06-29T23:07:05.036Z,62.30
2018-06-29T23:09:36.781Z,61.23
2018-06-29T23:12:08.895Z,67.93
2018-06-29T23:14:41.381Z,64.33
2018-06-29T23:17:13.071Z,78.30
2018-06-29T23:19:45.044Z,63.47
2018-06-29T23:22:16.805Z,72.53
2018-06-29T23:24:49.420Z,71.27
2018-06-29T23:27:21.507Z,61.83
2018-06-29T23:29:53.827Z,54.03
2018-06-29T23:32:25.949Z,83.93
2018-06-29T23:34:58.084Z,69.70
2018-06-29T23:37:29.775Z,78.67
2018-06-29T23:40:02.017Z,63.90
2018-06-29T23:42:33.868Z,68.10
2018-06-29T23:45:05.838Z,62.67
2018-06-29T23:47:37.126Z,79.60
2018-06-29T23:50:09.004Z,60.07
2018-06-29T23:52:40.847Z,66.37
2018-06-29T23:55:12.940Z,59.57
2018-06-29T23:57:46.507Z,68.30
